Time;durP1;ratioP1;P1;durP2;ratioP2;P2;SDS_P1;SDS_P2;PMS_P1;PMS_P2;Temp;Humidity;BMP_temperature;BMP_pressure;BME280_temperature;BME280_humidity;BME280_pressure;Samples;Min_cycle;Max_cycle;Signal;HPM_P1;HPM_P2
2022/11/24 00:00:51;;;;;;;16.70;10.60;;;;;;;;;;6577411;28;20173;-91
2022/11/24 00:04:03;;;;;;;18.33;12.40;;;;;;;;;;6595449;28;20173;-90
2022/11/24 00:07:14;;;;;;;28.67;16.53;;;;;;;;;;6592572;28;20177;-90
2022/11/24 00:10:24;;;;;;;41.33;21.03;;;;;;;;;;6577102;28;20728;-90
2022/11/24 00:13:37;;;;;;;26.57;13.63;;;;;;;;;;6577254;28;20173;-91
2022/11/24 00:16:48;;;;;;;29.73;16.77;;;;;;;;;;6577372;28;20179;-91
2022/11/24 00:19:58;;;;;;;26.17;15.83;;;;;;;;;;6594637;28;20180;-90
2022/11/24 00:23:08;;;;;;;22.30;14.30;;;;;;;;;;6594796;28;20241;-90
2022/11/24 00:26:20;;;;;;;23.27;15.60;;;;;;;;;;6594732;28;20552;-90
2022/11/24 00:29:30;;;;;;;25.43;16.20;;;;;;;;;;6567315;28;20263;-90
2022/11/24 00:32:40;;;;;;;29.10;18.73;;;;;;;;;;6568425;28;20183;-90
2022/11/24 00:35:57;;;;;;;20.20;12.97;;;;;;;;;;6568328;28;20177;-90
2022/11/24 00:39:11;;;;;;;20.93;13.93;;;;;;;;;;6569933;28;20189;-89
2022/11/24 00:42:21;;;;;;;23.83;15.23;;;;;;;;;;6570507;28;20180;-89
2022/11/24 00:45:32;;;;;;;23.40;15.07;;;;;;;;;;6568179;28;20181;-89
2022/11/24 00:48:43;;;;;;;15.63;11.60;;;;;;;;;;6568672;28;20184;-90
2022/11/24 00:51:53;;;;;;;19.50;12.53;;;;;;;;;;6569759;28;20255;-90
2022/11/24 00:55:04;;;;;;;15.60;10.73;;;;;;;;;;6568297;28;20177;-90
2022/11/24 00:58:14;;;;;;;29.00;18.67;;;;;;;;;;6568699;28;20247;-91
2022/11/24 01:01:26;;;;;;;17.80;11.77;;;;;;;;;;6568932;28;20192;-90
2022/11/24 01:04:37;;;;;;;15.20;10.00;;;;;;;;;;6574684;28;20275;-91
2022/11/24 01:07:48;;;;;;;15.30;10.73;;;;;;;;;;6573226;28;20181;-90
2022/11/24 01:11:09;;;;;;;20.87;12.83;;;;;;;;;;6572399;28;20667;-91
2022/11/24 01:14:21;;;;;;;17.63;12.60;;;;;;;;;;6573975;28;20702;-91
2022/11/24 01:17:33;;;;;;;14.13;9.70;;;;;;;;;;6573860;28;20248;-91
2022/11/24 01:20:46;;;;;;;11.73;7.67;;;;;;;;;;6573494;28;20188;-91
2022/11/24 01:23:57;;;;;;;12.10;9.27;;;;;;;;;;6572486;28;20173;-90
2022/11/24 01:27:07;;;;;;;15.73;10.57;;;;;;;;;;6574053;28;20670;-90
2022/11/24 01:30:17;;;;;;;15.77;11.23;;;;;;;;;;6599124;28;20200;-90
2022/11/24 01:33:28;;;;;;;12.77;8.20;;;;;;;;;;6599486;28;20199;-90
2022/11/24 01:36:40;;;;;;;19.40;11.47;;;;;;;;;;6581746;28;20585;-90
2022/11/24 01:39:50;;;;;;;17.63;10.80;;;;;;;;;;6598982;28;20250;-90
2022/11/24 01:43:01;;;;;;;19.27;12.17;;;;;;;;;;6599258;28;20180;-91
2022/11/24 01:46:26;;;;;;;19.03;11.90;;;;;;;;;;6598845;28;20181;-91
2022/11/24 01:49:39;;;;;;;19.13;12.03;;;;;;;;;;6597305;28;20203;-90
2022/11/24 01:52:52;;;;;;;16.00;10.00;;;;;;;;;;6555258;28;20177;-90
2022/11/24 01:56:02;;;;;;;14.23;9.83;;;;;;;;;;6554743;28;20188;-90
2022/11/24 01:59:14;;;;;;;19.30;12.03;;;;;;;;;;6554606;28;20643;-90
2022/11/24 02:02:26;;;;;;;19.50;11.97;;;;;;;;;;6555265;28;20181;-90
2022/11/24 02:05:59;;;;;;;18.17;11.20;;;;;;;;;;6572171;28;20181;-90
2022/11/24 02:09:24;;;;;;;16.00;9.93;;;;;;;;;;6562179;28;20566;-90
2022/11/24 02:12:35;;;;;;;14.47;9.70;;;;;;;;;;6554397;28;20191;-90
2022/11/24 02:15:46;;;;;;;18.40;11.57;;;;;;;;;;6571776;28;20184;-89
2022/11/24 02:18:56;;;;;;;19.60;11.87;;;;;;;;;;6555212;28;20574;-89
2022/11/24 02:22:10;;;;;;;21.47;11.33;;;;;;;;;;6572363;28;20224;-89
2022/11/24 02:25:30;;;;;;;18.37;10.43;;;;;;;;;;6554355;28;20195;-89
2022/11/24 02:28:40;;;;;;;17.07;10.30;;;;;;;;;;6554266;28;20314;-90
2022/11/24 02:31:53;;;;;;;17.17;10.20;;;;;;;;;;6538660;28;20193;-90
2022/11/24 02:35:06;;;;;;;16.63;10.67;;;;;;;;;;6572047;28;20520;-90
2022/11/24 02:38:16;;;;;;;19.50;12.27;;;;;;;;;;6571989;28;20169;-90
2022/11/24 02:41:27;;;;;;;19.43;12.07;;;;;;;;;;6554627;28;20188;-90
2022/11/24 02:44:41;;;;;;;22.33;13.13;;;;;;;;;;6554548;28;20177;-90
2022/11/24 02:47:51;;;;;;;20.37;12.47;;;;;;;;;;6571376;28;20177;-91
2022/11/24 02:51:01;;;;;;;19.80;11.83;;;;;;;;;;6571243;28;20675;-90
2022/11/24 02:54:12;;;;;;;19.63;11.33;;;;;;;;;;6554005;28;20585;-91
2022/11/24 02:57:22;;;;;;;18.03;11.33;;;;;;;;;;6571152;28;20192;-90
2022/11/24 03:00:32;;;;;;;19.20;11.93;;;;;;;;;;6571544;28;20169;-91
2022/11/24 03:03:44;;;;;;;18.37;10.83;;;;;;;;;;6571289;28;20184;-90
2022/11/24 03:06:55;;;;;;;17.40;10.90;;;;;;;;;;6571283;28;20272;-90
2022/11/24 03:10:05;;;;;;;20.90;11.67;;;;;;;;;;6571512;28;20197;-91
2022/11/24 03:13:16;;;;;;;21.17;11.60;;;;;;;;;;6571217;28;20647;-90
2022/11/24 03:16:26;;;;;;;29.07;14.97;;;;;;;;;;6553479;28;20184;-90
2022/11/24 03:19:36;;;;;;;26.90;14.90;;;;;;;;;;6570829;28;20185;-90
2022/11/24 03:22:47;;;;;;;32.70;16.70;;;;;;;;;;6553057;28;20181;-90
2022/11/24 03:26:11;;;;;;;26.17;15.73;;;;;;;;;;6570744;28;20192;-90
2022/11/24 03:29:21;;;;;;;25.97;14.57;;;;;;;;;;6553232;28;20779;-90
2022/11/24 03:32:31;;;;;;;25.90;14.20;;;;;;;;;;6552803;28;20181;-90
2022/11/24 03:35:41;;;;;;;21.30;12.90;;;;;;;;;;6552793;28;20540;-90
2022/11/24 03:38:52;;;;;;;29.40;14.93;;;;;;;;;;6570619;28;20177;-91
2022/11/24 03:42:03;;;;;;;26.27;14.23;;;;;;;;;;6552842;28;20181;-91
2022/11/24 03:45:14;;;;;;;26.30;13.57;;;;;;;;;;6570093;28;20173;-91
2022/11/24 03:48:24;;;;;;;24.13;13.60;;;;;;;;;;6537015;28;20184;-91
2022/11/24 03:51:35;;;;;;;24.33;14.60;;;;;;;;;;6569893;28;20216;-91
2022/11/24 03:54:46;;;;;;;21.83;12.93;;;;;;;;;;6569792;28;20177;-91
2022/11/24 03:57:56;;;;;;;25.33;14.40;;;;;;;;;;6536727;28;20177;-91
2022/11/24 04:01:08;;;;;;;25.67;14.67;;;;;;;;;;6570068;28;20235;-91
2022/11/24 04:04:18;;;;;;;27.17;15.80;;;;;;;;;;6569872;28;20189;-90
2022/11/24 04:07:29;;;;;;;22.83;13.80;;;;;;;;;;6551919;28;20189;-91
2022/11/24 04:10:40;;;;;;;25.37;13.07;;;;;;;;;;6552174;28;20236;-91
2022/11/24 04:13:52;;;;;;;25.27;15.37;;;;;;;;;;6552497;28;20181;-90
2022/11/24 04:17:03;;;;;;;29.27;16.63;;;;;;;;;;6570823;28;20674;-90
2022/11/24 04:20:13;;;;;;;29.93;16.13;;;;;;;;;;6551939;28;20212;-91
2022/11/24 04:23:24;;;;;;;26.70;14.63;;;;;;;;;;6570046;28;20516;-91
2022/11/24 04:26:34;;;;;;;28.43;15.17;;;;;;;;;;6552097;28;20216;-90
2022/11/24 04:29:44;;;;;;;23.33;13.77;;;;;;;;;;6551318;28;20785;-91
2022/11/24 04:32:55;;;;;;;25.57;13.63;;;;;;;;;;6569716;28;20271;-91
2022/11/24 04:36:06;;;;;;;31.73;17.47;;;;;;;;;;6570454;28;20336;-91
2022/11/24 04:39:16;;;;;;;25.30;14.63;;;;;;;;;;6556714;28;20636;-91
2022/11/24 04:42:27;;;;;;;20.17;12.63;;;;;;;;;;6556950;28;20180;-91
2022/11/24 04:45:37;;;;;;;17.43;10.17;;;;;;;;;;6556860;28;20235;-91
2022/11/24 04:48:47;;;;;;;21.87;12.77;;;;;;;;;;6556642;28;20177;-90
2022/11/24 04:51:57;;;;;;;19.63;11.57;;;;;;;;;;6557197;28;20608;-90
2022/11/24 04:55:08;;;;;;;24.60;15.43;;;;;;;;;;6556586;28;20545;-91
2022/11/24 04:58:18;;;;;;;23.97;13.47;;;;;;;;;;6555970;28;20252;-91
2022/11/24 05:01:28;;;;;;;20.57;11.43;;;;;;;;;;6556044;28;20192;-90
2022/11/24 05:04:39;;;;;;;20.07;11.90;;;;;;;;;;6556036;28;20700;-90
2022/11/24 05:07:49;;;;;;;18.63;11.43;;;;;;;;;;6574563;28;20188;-90
2022/11/24 05:11:04;;;;;;;23.00;12.90;;;;;;;;;;6540051;28;20236;-90
2022/11/24 05:14:14;;;;;;;27.23;13.93;;;;;;;;;;6557102;28;20575;-90
2022/11/24 05:17:28;;;;;;;23.23;12.83;;;;;;;;;;6557471;28;20173;-90
2022/11/24 05:20:39;;;;;;;21.30;12.77;;;;;;;;;;6569169;28;20192;-90
2022/11/24 05:23:49;;;;;;;24.70;12.23;;;;;;;;;;6556120;28;20627;-91
2022/11/24 05:26:59;;;;;;;23.20;12.60;;;;;;;;;;6555775;28;20184;-90
2022/11/24 05:30:10;;;;;;;14.97;8.70;;;;;;;;;;6573987;28;20233;-90
2022/11/24 05:33:21;;;;;;;20.90;13.20;;;;;;;;;;6555062;28;20184;-90
2022/11/24 05:40:01;;;;;;;20.93;13.13;;;;;;;;;;6599410;28;20649;-90
2022/11/24 05:43:13;;;;;;;22.93;12.63;;;;;;;;;;6580709;28;20180;-90
2022/11/24 05:46:23;;;;;;;20.30;11.67;;;;;;;;;;6581484;28;20692;-91
2022/11/24 05:49:34;;;;;;;21.97;12.27;;;;;;;;;;6580786;28;20212;-91
2022/11/24 05:52:47;;;;;;;16.93;11.77;;;;;;;;;;6580071;28;20234;-91
2022/11/24 05:55:57;;;;;;;20.60;12.43;;;;;;;;;;6580198;28;20180;-92
2022/11/24 05:59:08;;;;;;;17.67;10.47;;;;;;;;;;6580304;28;20551;-91
2022/11/24 06:02:18;;;;;;;21.93;13.60;;;;;;;;;;6597848;28;20204;-91
2022/11/24 06:05:29;;;;;;;24.33;12.90;;;;;;;;;;6580962;28;20176;-92
2022/11/24 06:08:39;;;;;;;20.63;12.10;;;;;;;;;;6576922;28;20177;-92
2022/11/24 06:11:49;;;;;;;16.37;10.10;;;;;;;;;;6579385;28;20687;-91
2022/11/24 06:15:00;;;;;;;23.17;13.50;;;;;;;;;;6596418;28;20173;-91
2022/11/24 06:18:10;;;;;;;21.67;12.97;;;;;;;;;;6579779;28;20215;-91
2022/11/24 06:21:20;;;;;;;19.80;12.47;;;;;;;;;;6597045;28;20654;-91
2022/11/24 06:24:31;;;;;;;21.60;13.40;;;;;;;;;;6562875;28;20190;-92
2022/11/24 06:27:41;;;;;;;22.23;13.37;;;;;;;;;;6578976;28;20243;-91
2022/11/24 06:30:51;;;;;;;18.67;10.90;;;;;;;;;;6579544;28;20701;-91
2022/11/24 06:34:04;;;;;;;17.40;10.23;;;;;;;;;;6590010;28;20181;-92
2022/11/24 06:37:14;;;;;;;15.67;9.93;;;;;;;;;;6578539;28;20172;-92
2022/11/24 06:40:26;;;;;;;20.63;11.57;;;;;;;;;;6579283;28;20176;-93
2022/11/24 06:43:37;;;;;;;19.20;11.70;;;;;;;;;;6597126;28;20554;-92
2022/11/24 06:46:47;;;;;;;18.40;10.70;;;;;;;;;;6596826;28;20238;-92
2022/11/24 06:49:58;;;;;;;20.33;12.77;;;;;;;;;;6596576;28;20200;-91
2022/11/24 06:53:08;;;;;;;23.13;13.13;;;;;;;;;;6598205;28;20255;-91
2022/11/24 06:56:19;;;;;;;22.30;12.57;;;;;;;;;;6596771;28;20181;-92
2022/11/24 06:59:30;;;;;;;15.57;9.87;;;;;;;;;;6596533;28;20550;-91
2022/11/24 07:02:40;;;;;;;17.30;9.70;;;;;;;;;;6579378;28;20207;-92
2022/11/24 07:05:55;;;;;;;19.30;11.47;;;;;;;;;;6597420;28;20183;-92
2022/11/24 07:09:11;;;;;;;12.70;7.47;;;;;;;;;;6579616;28;20184;-91
2022/11/24 07:12:23;;;;;;;19.00;10.57;;;;;;;;;;6579041;28;20180;-92
2022/11/24 07:15:33;;;;;;;14.70;9.17;;;;;;;;;;6579360;28;20180;-91
2022/11/24 07:18:44;;;;;;;16.47;10.63;;;;;;;;;;6596270;28;20275;-91
2022/11/24 07:21:54;;;;;;;16.10;9.40;;;;;;;;;;6578459;28;20267;-91
2022/11/24 07:25:06;;;;;;;16.80;10.57;;;;;;;;;;6578805;28;20195;-91
2022/11/24 07:28:17;;;;;;;21.17;12.77;;;;;;;;;;6573463;28;20245;-92
2022/11/24 07:31:27;;;;;;;16.53;10.43;;;;;;;;;;6582386;28;20291;-92
2022/11/24 07:34:38;;;;;;;20.70;13.00;;;;;;;;;;6578482;28;20178;-92
2022/11/24 07:37:48;;;;;;;19.30;11.20;;;;;;;;;;6577927;28;20176;-92
2022/11/24 07:41:02;;;;;;;35.03;18.87;;;;;;;;;;6578350;28;20635;-91
2022/11/24 07:44:12;;;;;;;19.80;11.43;;;;;;;;;;6589505;28;20184;-91
2022/11/24 07:47:24;;;;;;;20.17;11.63;;;;;;;;;;6566016;28;20712;-92
2022/11/24 07:50:36;;;;;;;22.07;12.97;;;;;;;;;;6595803;28;20289;-92
2022/11/24 07:53:46;;;;;;;14.20;8.17;;;;;;;;;;6595744;28;20176;-91
2022/11/24 07:56:57;;;;;;;15.03;8.93;;;;;;;;;;6595039;28;20279;-91
2022/11/24 08:00:08;;;;;;;15.33;9.40;;;;;;;;;;6593236;28;20500;-94
2022/11/24 08:03:18;;;;;;;22.27;12.30;;;;;;;;;;6576274;28;20180;-94
2022/11/24 08:06:29;;;;;;;19.23;11.20;;;;;;;;;;6577189;28;20654;-90
2022/11/24 08:09:39;;;;;;;15.50;9.33;;;;;;;;;;6577171;28;20215;-90
2022/11/24 08:12:50;;;;;;;18.87;10.83;;;;;;;;;;6563299;28;20510;-91
2022/11/24 08:16:07;;;;;;;19.27;11.50;;;;;;;;;;6582158;28;20208;-90
2022/11/24 08:19:17;;;;;;;20.07;11.87;;;;;;;;;;6582162;28;20180;-90
2022/11/24 08:22:32;;;;;;;26.53;14.63;;;;;;;;;;6599451;28;20227;-92
2022/11/24 08:25:42;;;;;;;27.10;13.33;;;;;;;;;;6599828;28;20202;-93
2022/11/24 08:28:56;;;;;;;21.50;11.67;;;;;;;;;;6599907;28;20263;-92
2022/11/24 08:32:06;;;;;;;19.33;10.50;;;;;;;;;;6599153;28;20213;-91
2022/11/24 08:35:17;;;;;;;20.43;12.80;;;;;;;;;;6582141;28;20623;-91
2022/11/24 08:38:27;;;;;;;22.60;12.90;;;;;;;;;;6599720;28;20182;-92
2022/11/24 08:41:37;;;;;;;17.43;10.93;;;;;;;;;;6581071;28;20218;-94
2022/11/24 08:44:48;;;;;;;20.07;11.60;;;;;;;;;;6599180;28;20180;-93
2022/11/24 08:47:59;;;;;;;21.90;12.00;;;;;;;;;;6576633;28;20542;-93
2022/11/24 08:51:11;;;;;;;23.13;13.40;;;;;;;;;;6581539;28;20307;-93
2022/11/24 08:54:24;;;;;;;24.87;14.20;;;;;;;;;;6580170;28;20499;-94
2022/11/24 08:57:35;;;;;;;22.67;12.17;;;;;;;;;;6581433;28;20314;-92
2022/11/24 09:00:47;;;;;;;29.37;17.23;;;;;;;;;;6580481;28;20212;-90
2022/11/24 09:03:57;;;;;;;25.07;12.80;;;;;;;;;;6597227;28;20634;-92
2022/11/24 09:07:07;;;;;;;24.93;13.67;;;;;;;;;;6581744;28;20180;-91
2022/11/24 09:10:18;;;;;;;24.67;13.23;;;;;;;;;;6581232;28;20342;-91
2022/11/24 09:13:28;;;;;;;22.47;12.80;;;;;;;;;;6580762;28;20184;-92
2022/11/24 09:16:38;;;;;;;17.47;10.53;;;;;;;;;;6600768;28;20169;-92
2022/11/24 09:19:49;;;;;;;24.47;13.07;;;;;;;;;;6599561;28;20631;-92
2022/11/24 09:22:59;;;;;;;17.83;11.07;;;;;;;;;;6581743;28;20275;-92
2022/11/24 09:26:14;;;;;;;19.17;10.53;;;;;;;;;;6599298;28;20181;-92
2022/11/24 09:29:24;;;;;;;14.17;8.13;;;;;;;;;;6598875;28;20228;-92
2022/11/24 09:32:37;;;;;;;16.53;9.50;;;;;;;;;;6581477;28;20602;-92
2022/11/24 09:35:48;;;;;;;13.97;9.07;;;;;;;;;;6581715;28;20196;-92
2022/11/24 09:38:59;;;;;;;18.97;10.23;;;;;;;;;;6599048;28;20185;-91
2022/11/24 09:42:27;;;;;;;16.47;10.43;;;;;;;;;;6581297;28;20176;-92
2022/11/24 09:46:01;;;;;;;16.40;9.80;;;;;;;;;;6581579;28;20270;-91
2022/11/24 09:49:16;;;;;;;19.37;12.23;;;;;;;;;;6581457;28;20185;-92
2022/11/24 09:52:35;;;;;;;17.03;10.23;;;;;;;;;;6581797;28;20184;-92
2022/11/24 09:55:50;;;;;;;18.30;11.47;;;;;;;;;;6580461;28;20545;-92
2022/11/24 09:59:09;;;;;;;16.43;10.67;;;;;;;;;;6582133;28;20180;-92
2022/11/24 10:02:20;;;;;;;13.37;8.20;;;;;;;;;;6581097;28;20184;-91
2022/11/24 10:05:32;;;;;;;19.70;11.50;;;;;;;;;;6581321;28;20276;-91
2022/11/24 10:08:58;;;;;;;35.70;20.80;;;;;;;;;;6580905;28;20202;-92
2022/11/24 10:12:20;;;;;;;26.97;14.67;;;;;;;;;;6597690;28;20187;-92
2022/11/24 10:15:49;;;;;;;16.83;11.10;;;;;;;;;;6579881;28;20192;-92
2022/11/24 10:19:01;;;;;;;18.20;12.33;;;;;;;;;;6587340;28;20549;-92
2022/11/24 10:22:17;;;;;;;15.20;10.23;;;;;;;;;;6596166;28;20277;-92
2022/11/24 10:25:50;;;;;;;21.23;13.30;;;;;;;;;;6579227;28;20174;-92
2022/11/24 10:29:01;;;;;;;17.37;10.67;;;;;;;;;;6585672;28;20232;-92
2022/11/24 10:32:19;;;;;;;16.97;9.77;;;;;;;;;;6597473;28;20234;-92
2022/11/24 10:35:48;;;;;;;24.07;13.83;;;;;;;;;;6578974;28;20195;-92
2022/11/24 10:39:01;;;;;;;19.80;10.00;;;;;;;;;;6598024;28;20190;-91
2022/11/24 10:42:28;;;;;;;37.37;18.87;;;;;;;;;;6597378;28;20188;-91
2022/11/24 10:45:39;;;;;;;19.10;10.80;;;;;;;;;;6585914;28;20173;-92
2022/11/24 10:48:52;;;;;;;16.03;10.83;;;;;;;;;;6578995;28;20532;-92
2022/11/24 10:52:12;;;;;;;25.43;13.80;;;;;;;;;;6578973;28;20283;-92
2022/11/24 10:55:23;;;;;;;22.63;14.63;;;;;;;;;;6595348;28;20231;-91
2022/11/24 10:58:34;;;;;;;23.40;15.03;;;;;;;;;;6579099;28;20165;-92
2022/11/24 11:01:45;;;;;;;24.67;15.13;;;;;;;;;;6596081;28;20694;-91
2022/11/24 11:04:55;;;;;;;20.83;12.17;;;;;;;;;;6579565;28;20238;-91
2022/11/24 11:08:26;;;;;;;18.43;11.13;;;;;;;;;;6594006;28;20226;-92
2022/11/24 11:11:40;;;;;;;16.97;10.57;;;;;;;;;;6584537;28;20630;-92
2022/11/24 11:14:50;;;;;;;16.40;10.30;;;;;;;;;;6597785;28;20168;-91
2022/11/24 11:18:01;;;;;;;22.13;11.90;;;;;;;;;;6597332;28;20172;-91
2022/11/24 11:21:23;;;;;;;18.13;11.07;;;;;;;;;;6578618;28;20188;-92
2022/11/24 11:24:33;;;;;;;14.80;9.03;;;;;;;;;;6594830;28;20168;-92
2022/11/24 11:27:43;;;;;;;13.60;8.67;;;;;;;;;;6595553;28;20220;-92
2022/11/24 11:31:00;;;;;;;19.10;11.40;;;;;;;;;;6596168;28;20216;-91
2022/11/24 11:34:16;;;;;;;14.03;9.10;;;;;;;;;;6579860;28;20678;-91
2022/11/24 11:37:30;;;;;;;13.90;8.23;;;;;;;;;;6580034;28;20271;-91
2022/11/24 11:40:42;;;;;;;19.07;10.43;;;;;;;;;;6596257;28;20180;-91
2022/11/24 11:44:03;;;;;;;19.97;12.43;;;;;;;;;;6595162;28;20259;-92
2022/11/24 11:47:16;;;;;;;19.73;12.83;;;;;;;;;;6579093;28;20172;-91
2022/11/24 11:50:39;;;;;;;21.00;12.53;;;;;;;;;;6578902;28;20605;-92
2022/11/24 11:54:03;;;;;;;23.87;14.07;;;;;;;;;;6578698;28;20180;-92
2022/11/24 11:57:19;;;;;;;16.47;10.43;;;;;;;;;;6596278;28;20164;-91
2022/11/24 12:00:31;;;;;;;17.60;11.50;;;;;;;;;;6577896;28;20611;-92
2022/11/24 12:03:49;;;;;;;11.30;7.73;;;;;;;;;;6577672;28;20199;-92
2022/11/24 12:07:13;;;;;;;15.43;9.47;;;;;;;;;;6576077;28;20649;-92
2022/11/24 12:10:30;;;;;;;9.47;6.17;;;;;;;;;;6576503;28;20196;-91
2022/11/24 12:13:43;;;;;;;17.87;10.90;;;;;;;;;;6595304;28;20169;-92
2022/11/24 12:16:53;;;;;;;16.03;11.67;;;;;;;;;;6583363;28;20577;-91
2022/11/24 12:20:07;;;;;;;19.37;11.50;;;;;;;;;;6577431;28;20267;-91
2022/11/24 12:23:22;;;;;;;18.30;10.03;;;;;;;;;;6596156;28;20263;-91
2022/11/24 12:26:32;;;;;;;18.73;11.63;;;;;;;;;;6591504;28;20578;-92
2022/11/24 12:29:43;;;;;;;16.43;11.23;;;;;;;;;;6594979;28;20228;-91
2022/11/24 12:32:53;;;;;;;26.93;15.57;;;;;;;;;;6577505;28;20202;-92
2022/11/24 12:36:15;;;;;;;24.77;16.37;;;;;;;;;;6595068;28;20255;-91
2022/11/24 12:39:25;;;;;;;17.77;11.80;;;;;;;;;;6594651;28;20203;-91
2022/11/24 12:42:42;;;;;;;22.57;13.70;;;;;;;;;;6594968;28;20176;-91
2022/11/24 12:46:08;;;;;;;20.67;13.00;;;;;;;;;;6592278;28;20153;-91
2022/11/24 12:49:21;;;;;;;20.03;12.13;;;;;;;;;;6583456;28;20619;-91
2022/11/24 12:52:34;;;;;;;16.10;11.23;;;;;;;;;;6576943;28;20173;-91
2022/11/24 12:55:45;;;;;;;17.00;11.23;;;;;;;;;;6594365;28;20208;-91
2022/11/24 12:59:15;;;;;;;19.50;12.30;;;;;;;;;;6580411;28;20686;-91
2022/11/24 13:02:35;;;;;;;19.13;12.50;;;;;;;;;;6589350;28;20690;-92
2022/11/24 13:05:45;;;;;;;20.13;12.23;;;;;;;;;;6599580;28;20171;-91
2022/11/24 13:08:56;;;;;;;17.80;10.87;;;;;;;;;;6599474;28;20177;-91
2022/11/24 13:12:13;;;;;;;25.63;14.93;;;;;;;;;;6581502;28;20208;-91
2022/11/24 13:15:24;;;;;;;19.83;11.43;;;;;;;;;;6599136;28;20172;-92
2022/11/24 13:18:40;;;;;;;23.67;13.87;;;;;;;;;;6598928;28;20172;-91
2022/11/24 13:22:09;;;;;;;24.90;15.43;;;;;;;;;;6581236;28;20230;-91
2022/11/24 13:25:29;;;;;;;27.23;17.27;;;;;;;;;;6581249;28;20184;-93
2022/11/24 13:29:00;;;;;;;28.70;15.90;;;;;;;;;;6598926;28;20258;-92
2022/11/24 13:32:11;;;;;;;16.57;9.23;;;;;;;;;;6582189;28;20212;-90
2022/11/24 13:35:21;;;;;;;17.83;11.57;;;;;;;;;;6600284;28;20238;-90
2022/11/24 13:38:43;;;;;;;16.70;10.17;;;;;;;;;;6581547;28;20212;-90
2022/11/24 13:41:54;;;;;;;17.80;11.40;;;;;;;;;;6581809;28;20271;-90
2022/11/24 13:45:24;;;;;;;20.60;12.87;;;;;;;;;;6581909;28;20180;-90
2022/11/24 13:48:34;;;;;;;15.97;11.00;;;;;;;;;;6579447;28;20617;-91
2022/11/24 13:51:45;;;;;;;23.70;13.77;;;;;;;;;;6578321;28;20216;-91
2022/11/24 13:54:56;;;;;;;18.97;12.70;;;;;;;;;;6596547;28;20698;-91
2022/11/24 13:58:10;;;;;;;19.90;11.10;;;;;;;;;;6598344;28;20513;-90
2022/11/24 14:01:24;;;;;;;13.97;9.50;;;;;;;;;;6598799;28;20183;-90
2022/11/24 14:04:38;;;;;;;14.60;8.23;;;;;;;;;;6581071;28;20188;-90
2022/11/24 14:07:50;;;;;;;15.23;10.20;;;;;;;;;;6598506;28;20169;-91
2022/11/24 14:11:00;;;;;;;18.30;10.63;;;;;;;;;;6597147;28;20200;-91
2022/11/24 14:14:19;;;;;;;15.57;10.63;;;;;;;;;;6580895;28;20267;-90
2022/11/24 14:17:30;;;;;;;20.30;12.50;;;;;;;;;;6581070;28;20582;-91
2022/11/24 14:20:40;;;;;;;17.37;11.30;;;;;;;;;;6598467;28;20176;-90
2022/11/24 14:23:55;;;;;;;23.90;14.63;;;;;;;;;;6580571;28;20180;-90
2022/11/24 14:27:12;;;;;;;19.47;12.53;;;;;;;;;;6580252;28;20176;-90
2022/11/24 14:30:24;;;;;;;16.53;10.83;;;;;;;;;;6597393;28;20232;-90
2022/11/24 14:33:35;;;;;;;15.27;9.80;;;;;;;;;;6596900;28;20623;-91
2022/11/24 14:36:46;;;;;;;17.83;10.73;;;;;;;;;;6580821;28;20230;-90
2022/11/24 14:39:56;;;;;;;18.93;12.23;;;;;;;;;;6599306;28;20180;-91
2022/11/24 14:43:19;;;;;;;19.80;12.23;;;;;;;;;;6580109;28;20649;-90
2022/11/24 14:46:29;;;;;;;23.47;14.13;;;;;;;;;;6580401;28;20185;-91
2022/11/24 14:49:41;;;;;;;21.60;13.87;;;;;;;;;;6576843;28;20216;-92
2022/11/24 14:52:55;;;;;;;24.13;13.50;;;;;;;;;;6554343;28;20181;-91
2022/11/24 14:56:15;;;;;;;19.77;11.60;;;;;;;;;;6554172;28;20611;-92
2022/11/24 14:59:26;;;;;;;17.43;11.73;;;;;;;;;;6554238;28;20276;-91
2022/11/24 15:02:43;;;;;;;22.87;16.30;;;;;;;;;;6581895;28;20177;-92
2022/11/24 15:05:55;;;;;;;30.17;18.27;;;;;;;;;;6576699;28;20176;-93
2022/11/24 15:09:06;;;;;;;27.60;16.47;;;;;;;;;;6596397;28;20168;-91
2022/11/24 15:12:22;;;;;;;29.37;16.60;;;;;;;;;;6578891;28;20258;-91
2022/11/24 15:15:34;;;;;;;20.53;12.37;;;;;;;;;;6593833;28;20648;-92
2022/11/24 15:18:46;;;;;;;22.77;14.10;;;;;;;;;;6595870;28;20176;-91
2022/11/24 15:21:56;;;;;;;23.90;14.77;;;;;;;;;;6577928;28;20259;-92
2022/11/24 15:25:21;;;;;;;46.00;26.53;;;;;;;;;;6595377;28;20546;-91
2022/11/24 15:28:33;;;;;;;38.77;22.60;;;;;;;;;;6593743;28;20586;-91
2022/11/24 15:31:44;;;;;;;44.93;25.60;;;;;;;;;;6578438;28;20259;-91
2022/11/24 15:34:55;;;;;;;38.83;22.17;;;;;;;;;;6579187;28;20223;-92
2022/11/24 15:38:05;;;;;;;40.77;23.70;;;;;;;;;;6577567;28;20196;-91
2022/11/24 15:41:19;;;;;;;40.30;22.33;;;;;;;;;;6595672;28;20626;-92
2022/11/24 15:44:30;;;;;;;54.87;25.37;;;;;;;;;;6577827;28;20180;-91
2022/11/24 15:47:40;;;;;;;55.77;27.43;;;;;;;;;;6577726;28;20697;-92
2022/11/24 15:50:51;;;;;;;48.57;24.93;;;;;;;;;;6595068;28;20203;-91
2022/11/24 15:54:01;;;;;;;44.47;24.40;;;;;;;;;;6577668;28;20179;-92
2022/11/24 15:57:11;;;;;;;42.60;22.80;;;;;;;;;;6577692;28;20219;-92
2022/11/24 16:00:22;;;;;;;29.97;18.53;;;;;;;;;;6594912;28;20173;-91
2022/11/24 16:03:33;;;;;;;30.53;18.27;;;;;;;;;;6576820;28;20546;-92
2022/11/24 16:06:43;;;;;;;38.87;23.67;;;;;;;;;;6595125;28;20179;-92
2022/11/24 16:09:53;;;;;;;44.23;24.13;;;;;;;;;;6577150;28;20207;-91
2022/11/24 16:13:04;;;;;;;74.03;35.23;;;;;;;;;;6561086;28;20538;-91
2022/11/24 16:16:15;;;;;;;69.67;41.80;;;;;;;;;;6594664;28;20176;-93
2022/11/24 16:19:27;;;;;;;64.37;36.87;;;;;;;;;;6577021;28;20275;-91
2022/11/24 16:22:37;;;;;;;57.07;30.80;;;;;;;;;;6594748;28;20180;-91
2022/11/24 16:25:49;;;;;;;71.20;36.60;;;;;;;;;;6560644;28;20982;-92
2022/11/24 16:29:00;;;;;;;42.57;24.30;;;;;;;;;;6576790;28;20240;-91
2022/11/24 16:32:11;;;;;;;31.27;20.03;;;;;;;;;;6596348;28;20231;-90
2022/11/24 16:35:22;;;;;;;44.13;27.20;;;;;;;;;;6581851;28;20245;-90
2022/11/24 16:38:34;;;;;;;31.77;19.97;;;;;;;;;;6582993;28;20180;-91
2022/11/24 16:41:44;;;;;;;39.47;23.40;;;;;;;;;;6582096;28;20721;-91
2022/11/24 16:44:55;;;;;;;44.23;25.93;;;;;;;;;;6566959;28;20181;-91
2022/11/24 16:48:05;;;;;;;66.57;34.60;;;;;;;;;;6600270;28;20270;-91
2022/11/24 16:51:16;;;;;;;85.67;44.53;;;;;;;;;;6581489;28;20558;-90
2022/11/24 16:54:26;;;;;;;65.43;35.47;;;;;;;;;;6582706;28;20646;-91
2022/11/24 16:57:36;;;;;;;62.00;36.33;;;;;;;;;;6582379;28;20184;-91
2022/11/24 17:00:48;;;;;;;37.73;20.47;;;;;;;;;;6581368;28;20192;-91
2022/11/24 17:03:59;;;;;;;46.17;25.23;;;;;;;;;;6581061;28;20203;-91
2022/11/24 17:07:09;;;;;;;54.83;27.00;;;;;;;;;;6581383;28;20512;-91
2022/11/24 17:10:20;;;;;;;38.17;19.80;;;;;;;;;;6580769;28;20338;-91
2022/11/24 17:13:30;;;;;;;41.57;21.97;;;;;;;;;;6581642;28;20208;-91
2022/11/24 17:16:41;;;;;;;43.47;24.07;;;;;;;;;;6598639;28;20198;-91
2022/11/24 17:19:51;;;;;;;45.57;24.67;;;;;;;;;;6581615;28;20176;-91
2022/11/24 17:23:01;;;;;;;41.77;22.43;;;;;;;;;;6581026;28;20181;-91
2022/11/24 17:26:14;;;;;;;35.17;19.80;;;;;;;;;;6598103;28;20278;-91
2022/11/24 17:29:24;;;;;;;32.60;18.70;;;;;;;;;;6586856;28;20236;-91
2022/11/24 17:32:34;;;;;;;41.70;23.50;;;;;;;;;;6580794;28;20542;-91
2022/11/24 17:35:45;;;;;;;42.83;22.33;;;;;;;;;;6580394;28;20635;-91
2022/11/24 17:38:55;;;;;;;37.10;20.83;;;;;;;;;;6579514;28;20185;-92
2022/11/24 17:42:05;;;;;;;49.43;27.47;;;;;;;;;;6577701;28;20219;-92
2022/11/24 17:45:16;;;;;;;46.57;25.00;;;;;;;;;;6580610;28;20227;-92
2022/11/24 17:48:27;;;;;;;49.47;28.67;;;;;;;;;;6580551;28;20580;-91
2022/11/24 17:51:38;;;;;;;43.37;25.53;;;;;;;;;;6580646;28;20208;-92
2022/11/24 17:54:49;;;;;;;46.93;25.03;;;;;;;;;;6580092;28;20183;-92
2022/11/24 17:57:59;;;;;;;47.30;25.53;;;;;;;;;;6580574;28;20185;-92
2022/11/24 18:01:10;;;;;;;47.30;25.73;;;;;;;;;;6579699;28;20219;-92
2022/11/24 18:04:20;;;;;;;42.07;23.30;;;;;;;;;;6579615;28;20267;-92
2022/11/24 18:07:31;;;;;;;48.47;23.33;;;;;;;;;;6578846;28;20184;-91
2022/11/24 18:10:41;;;;;;;37.70;20.80;;;;;;;;;;6597091;28;20208;-93
2022/11/24 18:13:54;;;;;;;40.73;22.27;;;;;;;;;;6579816;28;20177;-94
2022/11/24 18:17:05;;;;;;;42.43;23.13;;;;;;;;;;6598477;28;20168;-93
2022/11/24 18:20:16;;;;;;;43.43;24.83;;;;;;;;;;6580317;28;20191;-94
2022/11/24 18:23:27;;;;;;;43.13;23.17;;;;;;;;;;6579951;28;20667;-93
2022/11/24 18:26:38;;;;;;;52.03;29.00;;;;;;;;;;6596125;28;20223;-93
2022/11/24 18:29:49;;;;;;;47.33;25.87;;;;;;;;;;6578117;28;20263;-94
2022/11/24 18:33:00;;;;;;;49.93;27.23;;;;;;;;;;6597244;28;20190;-93
2022/11/24 18:36:15;;;;;;;67.73;38.37;;;;;;;;;;6579033;28;20542;-94
2022/11/24 18:39:27;;;;;;;53.07;31.23;;;;;;;;;;6577937;28;20191;-93
2022/11/24 18:42:37;;;;;;;49.30;27.67;;;;;;;;;;6578949;28;20180;-93
2022/11/24 18:45:48;;;;;;;40.73;23.10;;;;;;;;;;6578059;28;20601;-93